sensor_id;sensor_type;location;lat;lon;timestamp;pressure;altitude;pressure_sealevel;temperature
67515;BMP280;60646;55.802;37.032;2023-05-07T00:00:21;100803.84;;;6.10
67515;BMP280;60646;55.802;37.032;2023-05-07T00:02:47;100791.69;;;5.97
67515;BMP280;60646;55.802;37.032;2023-05-07T00:05:13;100789.44;;;5.95
67515;BMP280;60646;55.802;37.032;2023-05-07T00:07:40;100789.53;;;5.92
67515;BMP280;60646;55.802;37.032;2023-05-07T00:10:06;100779.13;;;5.85
67515;BMP280;60646;55.802;37.032;2023-05-07T00:12:32;100779.88;;;5.85
67515;BMP280;60646;55.802;37.032;2023-05-07T00:15:05;100809.09;;;5.98
67515;BMP280;60646;55.802;37.032;2023-05-07T00:17:33;100794.59;;;5.86
67515;BMP280;60646;55.802;37.032;2023-05-07T00:20:03;100807.03;;;5.89
67515;BMP280;60646;55.802;37.032;2023-05-07T00:22:32;100788.47;;;5.73
67515;BMP280;60646;55.802;37.032;2023-05-07T00:24:59;100800.94;;;5.76
67515;BMP280;60646;55.802;37.032;2023-05-07T00:27:25;100822.94;;;5.89
67515;BMP280;60646;55.802;37.032;2023-05-07T00:29:51;100801.44;;;5.71
67515;BMP280;60646;55.802;37.032;2023-05-07T00:32:17;100813.34;;;5.79
67515;BMP280;60646;55.802;37.032;2023-05-07T00:34:43;100826.13;;;5.84
67515;BMP280;60646;55.802;37.032;2023-05-07T00:37:09;100819.81;;;5.78
67515;BMP280;60646;55.802;37.032;2023-05-07T00:39:35;100817.16;;;5.78
67515;BMP280;60646;55.802;37.032;2023-05-07T00:42:02;100804.56;;;5.66
67515;BMP280;60646;55.802;37.032;2023-05-07T00:44:28;100803.97;;;5.58
67515;BMP280;60646;55.802;37.032;2023-05-07T00:46:57;100821.97;;;5.67
67515;BMP280;60646;55.802;37.032;2023-05-07T00:49:34;100821.97;;;5.67
67515;BMP280;60646;55.802;37.032;2023-05-07T00:52:01;100823.13;;;5.66
67515;BMP280;60646;55.802;37.032;2023-05-07T00:54:27;100826.59;;;5.63
67515;BMP280;60646;55.802;37.032;2023-05-07T00:56:54;100820.72;;;5.55
67515;BMP280;60646;55.802;37.032;2023-05-07T00:59:20;100818.41;;;5.57
67515;BMP280;60646;55.802;37.032;2023-05-07T01:01:46;100811.84;;;5.46
67515;BMP280;60646;55.802;37.032;2023-05-07T01:04:11;100820.06;;;5.51
67515;BMP280;60646;55.802;37.032;2023-05-07T01:06:38;100825.38;;;5.51
67515;BMP280;60646;55.802;37.032;2023-05-07T01:09:04;100809.78;;;5.37
67515;BMP280;60646;55.802;37.032;2023-05-07T01:11:30;100823.94;;;5.47
67515;BMP280;60646;55.802;37.032;2023-05-07T01:13:58;100818.09;;;5.39
67515;BMP280;60646;55.802;37.032;2023-05-07T01:16:25;100822.94;;;5.41
67515;BMP280;60646;55.802;37.032;2023-05-07T01:18:51;100833.22;;;5.39
67515;BMP280;60646;55.802;37.032;2023-05-07T01:21:17;100820.94;;;5.29
67515;BMP280;60646;55.802;37.032;2023-05-07T01:23:44;100810.53;;;5.22
67515;BMP280;60646;55.802;37.032;2023-05-07T01:26:10;100834.78;;;5.36
67515;BMP280;60646;55.802;37.032;2023-05-07T01:28:36;100808.00;;;5.14
67515;BMP280;60646;55.802;37.032;2023-05-07T01:31:03;100830.78;;;5.28
67515;BMP280;60646;55.802;37.032;2023-05-07T01:33:33;100845.47;;;5.33
67515;BMP280;60646;55.802;37.032;2023-05-07T01:36:00;100850.00;;;5.32
67515;BMP280;60646;55.802;37.032;2023-05-07T01:38:28;100828.03;;;5.15
67515;BMP280;60646;55.802;37.032;2023-05-07T01:40:55;100855.78;;;5.27
67515;BMP280;60646;55.802;37.032;2023-05-07T01:43:21;100859.19;;;5.28
67515;BMP280;60646;55.802;37.032;2023-05-07T01:45:47;100850.91;;;5.26
67515;BMP280;60646;55.802;37.032;2023-05-07T01:48:15;100839.03;;;5.14
67515;BMP280;60646;55.802;37.032;2023-05-07T01:50:44;100833.41;;;5.12
67515;BMP280;60646;55.802;37.032;2023-05-07T01:53:10;100837.72;;;5.06
67515;BMP280;60646;55.802;37.032;2023-05-07T01:55:36;100860.84;;;5.22
67515;BMP280;60646;55.802;37.032;2023-05-07T01:58:03;100866.94;;;5.18
67515;BMP280;60646;55.802;37.032;2023-05-07T02:00:29;100847.56;;;5.05
67515;BMP280;60646;55.802;37.032;2023-05-07T02:02:55;100845.72;;;5.02
67515;BMP280;60646;55.802;37.032;2023-05-07T02:05:36;100850.66;;;5.00
67515;BMP280;60646;55.802;37.032;2023-05-07T02:08:09;100853.75;;;4.99
67515;BMP280;60646;55.802;37.032;2023-05-07T02:10:35;100853.78;;;4.95
67515;BMP280;60646;55.802;37.032;2023-05-07T02:13:01;100877.69;;;5.11
67515;BMP280;60646;55.802;37.032;2023-05-07T02:15:27;100849.25;;;4.96
67515;BMP280;60646;55.802;37.032;2023-05-07T02:17:59;100882.22;;;5.11
67515;BMP280;60646;55.802;37.032;2023-05-07T02:20:27;100879.97;;;5.09
67515;BMP280;60646;55.802;37.032;2023-05-07T02:23:12;100879.66;;;5.07
67515;BMP280;60646;55.802;37.032;2023-05-07T02:25:38;100857.59;;;4.94
67515;BMP280;60646;55.802;37.032;2023-05-07T02:28:04;100869.56;;;5.02
67515;BMP280;60646;55.802;37.032;2023-05-07T02:30:46;100891.69;;;5.12
67515;BMP280;60646;55.802;37.032;2023-05-07T02:33:12;100880.16;;;5.02
67515;BMP280;60646;55.802;37.032;2023-05-07T02:35:40;100895.88;;;5.09
67515;BMP280;60646;55.802;37.032;2023-05-07T02:38:06;100894.31;;;5.12
67515;BMP280;60646;55.802;37.032;2023-05-07T02:40:33;100900.38;;;5.12
67515;BMP280;60646;55.802;37.032;2023-05-07T02:42:59;100880.25;;;4.95
67515;BMP280;60646;55.802;37.032;2023-05-07T02:45:25;100886.13;;;5.06
67515;BMP280;60646;55.802;37.032;2023-05-07T02:47:53;100891.56;;;4.99
67515;BMP280;60646;55.802;37.032;2023-05-07T02:50:19;100906.00;;;5.14
67515;BMP280;60646;55.802;37.032;2023-05-07T02:52:45;100891.44;;;5.06
67515;BMP280;60646;55.802;37.032;2023-05-07T02:55:11;100895.06;;;5.12
67515;BMP280;60646;55.802;37.032;2023-05-07T02:57:37;100869.63;;;4.99
67515;BMP280;60646;55.802;37.032;2023-05-07T03:00:12;100889.31;;;5.17
67515;BMP280;60646;55.802;37.032;2023-05-07T03:02:40;100897.25;;;5.17
67515;BMP280;60646;55.802;37.032;2023-05-07T03:05:06;100915.00;;;5.37
67515;BMP280;60646;55.802;37.032;2023-05-07T03:07:32;100885.16;;;5.16
67515;BMP280;60646;55.802;37.032;2023-05-07T03:09:58;100905.25;;;5.34
67515;BMP280;60646;55.802;37.032;2023-05-07T03:12:23;100904.84;;;5.35
67515;BMP280;60646;55.802;37.032;2023-05-07T03:14:50;100896.88;;;5.35
67515;BMP280;60646;55.802;37.032;2023-05-07T03:17:15;100915.13;;;5.49
67515;BMP280;60646;55.802;37.032;2023-05-07T03:19:41;100931.19;;;5.58
67515;BMP280;60646;55.802;37.032;2023-05-07T03:22:08;100910.25;;;5.48
67515;BMP280;60646;55.802;37.032;2023-05-07T03:24:33;100912.06;;;5.51
67515;BMP280;60646;55.802;37.032;2023-05-07T03:26:59;100908.66;;;5.50
67515;BMP280;60646;55.802;37.032;2023-05-07T03:29:27;100919.94;;;5.54
67515;BMP280;60646;55.802;37.032;2023-05-07T03:31:54;100926.63;;;5.59
67515;BMP280;60646;55.802;37.032;2023-05-07T03:34:19;100922.09;;;5.59
67515;BMP280;60646;55.802;37.032;2023-05-07T03:36:48;100916.88;;;5.56
67515;BMP280;60646;55.802;37.032;2023-05-07T03:39:14;100951.97;;;5.80
67515;BMP280;60646;55.802;37.032;2023-05-07T03:41:41;100928.81;;;5.64
67515;BMP280;60646;55.802;37.032;2023-05-07T03:44:07;100943.59;;;5.81
67515;BMP280;60646;55.802;37.032;2023-05-07T03:46:33;100942.09;;;5.80
67515;BMP280;60646;55.802;37.032;2023-05-07T03:49:00;100958.44;;;5.95
67515;BMP280;60646;55.802;37.032;2023-05-07T03:51:26;100948.56;;;5.95
67515;BMP280;60646;55.802;37.032;2023-05-07T03:53:52;100936.22;;;5.89
67515;BMP280;60646;55.802;37.032;2023-05-07T03:56:19;100965.81;;;6.03
67515;BMP280;60646;55.802;37.032;2023-05-07T03:58:49;100954.31;;;6.10
67515;BMP280;60646;55.802;37.032;2023-05-07T04:01:15;100968.66;;;6.12
67515;BMP280;60646;55.802;37.032;2023-05-07T04:03:41;100936.41;;;5.98
67515;BMP280;60646;55.802;37.032;2023-05-07T04:06:06;100962.75;;;6.21
67515;BMP280;60646;55.802;37.032;2023-05-07T04:08:34;100943.78;;;6.06
67515;BMP280;60646;55.802;37.032;2023-05-07T04:11:01;100969.81;;;6.28
67515;BMP280;60646;55.802;37.032;2023-05-07T04:13:30;100957.84;;;6.19
67515;BMP280;60646;55.802;37.032;2023-05-07T04:15:57;100960.34;;;6.27
67515;BMP280;60646;55.802;37.032;2023-05-07T04:18:24;100968.81;;;6.38
67515;BMP280;60646;55.802;37.032;2023-05-07T04:20:51;100956.59;;;6.40
67515;BMP280;60646;55.802;37.032;2023-05-07T04:23:17;100979.06;;;6.52
67515;BMP280;60646;55.802;37.032;2023-05-07T04:25:44;100977.06;;;6.56
67515;BMP280;60646;55.802;37.032;2023-05-07T04:28:19;100978.06;;;6.62
67515;BMP280;60646;55.802;37.032;2023-05-07T04:30:46;100958.25;;;6.50
67515;BMP280;60646;55.802;37.032;2023-05-07T04:33:14;100992.81;;;6.79
67515;BMP280;60646;55.802;37.032;2023-05-07T04:35:43;100992.59;;;6.86
67515;BMP280;60646;55.802;37.032;2023-05-07T04:38:09;100992.41;;;6.93
67515;BMP280;60646;55.802;37.032;2023-05-07T04:40:36;100996.03;;;6.99
67515;BMP280;60646;55.802;37.032;2023-05-07T04:43:02;100990.66;;;7.03
67515;BMP280;60646;55.802;37.032;2023-05-07T04:45:32;100976.03;;;6.95
67515;BMP280;60646;55.802;37.032;2023-05-07T04:47:58;100974.28;;;7.04
67515;BMP280;60646;55.802;37.032;2023-05-07T04:50:25;100989.81;;;7.18
67515;BMP280;60646;55.802;37.032;2023-05-07T04:52:55;100987.75;;;7.26
67515;BMP280;60646;55.802;37.032;2023-05-07T04:55:22;101001.81;;;7.39
67515;BMP280;60646;55.802;37.032;2023-05-07T04:57:49;101003.50;;;7.46
67515;BMP280;60646;55.802;37.032;2023-05-07T05:00:16;100966.25;;;7.33
67515;BMP280;60646;55.802;37.032;2023-05-07T05:02:47;100981.91;;;7.44
67515;BMP280;60646;55.802;37.032;2023-05-07T05:05:17;100960.53;;;7.35
67515;BMP280;60646;55.802;37.032;2023-05-07T05:07:44;100988.94;;;7.63
67515;BMP280;60646;55.802;37.032;2023-05-07T05:10:11;100980.97;;;7.63
67515;BMP280;60646;55.802;37.032;2023-05-07T05:12:39;100967.56;;;7.66
67515;BMP280;60646;55.802;37.032;2023-05-07T05:15:05;100992.75;;;7.87
67515;BMP280;60646;55.802;37.032;2023-05-07T05:17:32;100984.56;;;7.82
67515;BMP280;60646;55.802;37.032;2023-05-07T05:20:02;101002.66;;;7.99
67515;BMP280;60646;55.802;37.032;2023-05-07T05:22:29;100994.06;;;7.95
67515;BMP280;60646;55.802;37.032;2023-05-07T05:24:57;101003.31;;;8.16
67515;BMP280;60646;55.802;37.032;2023-05-07T05:27:24;100997.00;;;8.10
67515;BMP280;60646;55.802;37.032;2023-05-07T05:29:50;100976.59;;;8.07
67515;BMP280;60646;55.802;37.032;2023-05-07T05:32:16;100992.50;;;8.19
67515;BMP280;60646;55.802;37.032;2023-05-07T05:34:42;101016.88;;;8.43
67515;BMP280;60646;55.802;37.032;2023-05-07T05:37:08;100995.66;;;8.40
67515;BMP280;60646;55.802;37.032;2023-05-07T05:39:36;101004.47;;;8.49
67515;BMP280;60646;55.802;37.032;2023-05-07T05:42:02;101013.59;;;8.61
67515;BMP280;60646;55.802;37.032;2023-05-07T05:44:28;101009.78;;;8.62
67515;BMP280;60646;55.802;37.032;2023-05-07T05:46:54;100991.13;;;8.62
67515;BMP280;60646;55.802;37.032;2023-05-07T05:49:25;101023.53;;;8.82
67515;BMP280;60646;55.802;37.032;2023-05-07T05:51:51;101013.81;;;8.88
67515;BMP280;60646;55.802;37.032;2023-05-07T05:54:17;101005.38;;;8.89
67515;BMP280;60646;55.802;37.032;2023-05-07T05:56:43;101004.53;;;8.93
67515;BMP280;60646;55.802;37.032;2023-05-07T05:59:10;101016.88;;;9.08
67515;BMP280;60646;55.802;37.032;2023-05-07T06:01:59;101025.56;;;9.21
67515;BMP280;60646;55.802;37.032;2023-05-07T06:04:25;101014.19;;;9.21
67515;BMP280;60646;55.802;37.032;2023-05-07T06:06:51;101008.72;;;9.24
67515;BMP280;60646;55.802;37.032;2023-05-07T06:09:17;101029.97;;;9.37
67515;BMP280;60646;55.802;37.032;2023-05-07T06:11:44;101020.34;;;9.39
67515;BMP280;60646;55.802;37.032;2023-05-07T06:14:11;101023.91;;;9.46
67515;BMP280;60646;55.802;37.032;2023-05-07T06:16:37;101022.75;;;9.47
67515;BMP280;60646;55.802;37.032;2023-05-07T06:19:05;101019.69;;;9.57
67515;BMP280;60646;55.802;37.032;2023-05-07T06:21:31;101024.91;;;9.61
67515;BMP280;60646;55.802;37.032;2023-05-07T06:23:57;101038.75;;;9.77
67515;BMP280;60646;55.802;37.032;2023-05-07T06:26:23;101025.22;;;9.72
67515;BMP280;60646;55.802;37.032;2023-05-07T06:28:49;100998.81;;;9.65
67515;BMP280;60646;55.802;37.032;2023-05-07T06:31:19;101035.69;;;9.97
67515;BMP280;60646;55.802;37.032;2023-05-07T06:33:56;101037.78;;;10.02
67515;BMP280;60646;55.802;37.032;2023-05-07T06:36:28;101019.94;;;9.99
67515;BMP280;60646;55.802;37.032;2023-05-07T06:38:57;101018.03;;;9.99
67515;BMP280;60646;55.802;37.032;2023-05-07T06:41:23;101018.06;;;10.09
67515;BMP280;60646;55.802;37.032;2023-05-07T06:43:49;101026.53;;;10.16
67515;BMP280;60646;55.802;37.032;2023-05-07T06:46:44;101008.13;;;10.18
67515;BMP280;60646;55.802;37.032;2023-05-07T06:49:15;101031.75;;;10.38
67515;BMP280;60646;55.802;37.032;2023-05-07T06:51:42;101027.75;;;10.42
67515;BMP280;60646;55.802;37.032;2023-05-07T06:54:08;101024.03;;;10.49
67515;BMP280;60646;55.802;37.032;2023-05-07T06:56:36;100999.84;;;10.34
67515;BMP280;60646;55.802;37.032;2023-05-07T06:59:04;100988.84;;;10.41
67515;BMP280;60646;55.802;37.032;2023-05-07T07:01:34;100999.22;;;10.57
67515;BMP280;60646;55.802;37.032;2023-05-07T07:04:01;101031.28;;;10.76
67515;BMP280;60646;55.802;37.032;2023-05-07T07:06:29;101022.97;;;10.83
67515;BMP280;60646;55.802;37.032;2023-05-07T07:08:59;101024.75;;;10.86
67515;BMP280;60646;55.802;37.032;2023-05-07T07:11:25;100993.88;;;10.76
67515;BMP280;60646;55.802;37.032;2023-05-07T07:13:52;100980.50;;;10.76
67515;BMP280;60646;55.802;37.032;2023-05-07T07:16:21;100995.19;;;10.89
67515;BMP280;60646;55.802;37.032;2023-05-07T07:18:47;101013.75;;;11.02
67515;BMP280;60646;55.802;37.032;2023-05-07T07:21:13;101010.72;;;11.18
67515;BMP280;60646;55.802;37.032;2023-05-07T07:23:39;101020.19;;;11.28
67515;BMP280;60646;55.802;37.032;2023-05-07T07:26:06;100991.81;;;11.22
67515;BMP280;60646;55.802;37.032;2023-05-07T07:28:32;100991.38;;;11.23
67515;BMP280;60646;55.802;37.032;2023-05-07T07:30:58;101003.66;;;11.39
67515;BMP280;60646;55.802;37.032;2023-05-07T07:33:24;101023.66;;;11.52
67515;BMP280;60646;55.802;37.032;2023-05-07T07:35:50;101030.31;;;11.57
67515;BMP280;60646;55.802;37.032;2023-05-07T07:38:16;100990.72;;;11.37
67515;BMP280;60646;55.802;37.032;2023-05-07T07:40:42;101008.50;;;11.49
67515;BMP280;60646;55.802;37.032;2023-05-07T07:43:10;101017.81;;;11.63
67515;BMP280;60646;55.802;37.032;2023-05-07T07:45:36;101001.03;;;11.62
67515;BMP280;60646;55.802;37.032;2023-05-07T07:48:03;101014.00;;;11.79
67515;BMP280;60646;55.802;37.032;2023-05-07T07:50:32;100985.19;;;11.74
67515;BMP280;60646;55.802;37.032;2023-05-07T07:52:58;101007.41;;;11.89
67515;BMP280;60646;55.802;37.032;2023-05-07T07:55:24;101009.44;;;11.94
67515;BMP280;60646;55.802;37.032;2023-05-07T07:57:53;100991.69;;;11.82
67515;BMP280;60646;55.802;37.032;2023-05-07T08:00:21;100987.81;;;11.83
67515;BMP280;60646;55.802;37.032;2023-05-07T08:02:51;100988.38;;;11.87
67515;BMP280;60646;55.802;37.032;2023-05-07T08:05:24;100993.69;;;11.96
67515;BMP280;60646;55.802;37.032;2023-05-07T08:07:51;100981.03;;;11.96
67515;BMP280;60646;55.802;37.032;2023-05-07T08:10:22;100983.66;;;12.05
67515;BMP280;60646;55.802;37.032;2023-05-07T08:12:52;101003.44;;;12.22
67515;BMP280;60646;55.802;37.032;2023-05-07T08:15:18;101007.44;;;12.27
67515;BMP280;60646;55.802;37.032;2023-05-07T08:17:45;100988.44;;;12.16
67515;BMP280;60646;55.802;37.032;2023-05-07T08:20:11;100992.72;;;12.22
67515;BMP280;60646;55.802;37.032;2023-05-07T08:22:37;101011.22;;;12.35
67515;BMP280;60646;55.802;37.032;2023-05-07T08:25:04;100992.28;;;12.24
67515;BMP280;60646;55.802;37.032;2023-05-07T08:27:32;100983.69;;;12.20
67515;BMP280;60646;55.802;37.032;2023-05-07T08:29:58;101002.56;;;12.40
67515;BMP280;60646;55.802;37.032;2023-05-07T08:32:24;101003.13;;;12.44
67515;BMP280;60646;55.802;37.032;2023-05-07T08:34:51;101003.13;;;12.44
67515;BMP280;60646;55.802;37.032;2023-05-07T08:37:18;100984.66;;;12.46
67515;BMP280;60646;55.802;37.032;2023-05-07T08:39:44;100992.31;;;12.53
67515;BMP280;60646;55.802;37.032;2023-05-07T08:42:17;101004.03;;;12.70
67515;BMP280;60646;55.802;37.032;2023-05-07T08:44:45;100999.28;;;12.74
67515;BMP280;60646;55.802;37.032;2023-05-07T08:47:46;101003.50;;;12.81
67515;BMP280;60646;55.802;37.032;2023-05-07T08:50:14;100992.03;;;12.66
67515;BMP280;60646;55.802;37.032;2023-05-07T08:52:48;101010.06;;;12.80
67515;BMP280;60646;55.802;37.032;2023-05-07T08:55:17;100988.34;;;12.63
67515;BMP280;60646;55.802;37.032;2023-05-07T08:57:43;100992.34;;;12.68
67515;BMP280;60646;55.802;37.032;2023-05-07T09:00:11;100992.22;;;12.62
67515;BMP280;60646;55.802;37.032;2023-05-07T09:02:38;100985.47;;;12.52
67515;BMP280;60646;55.802;37.032;2023-05-07T09:05:06;100980.19;;;12.58
67515;BMP280;60646;55.802;37.032;2023-05-07T09:07:33;100969.38;;;12.52
67515;BMP280;60646;55.802;37.032;2023-05-07T09:10:03;100990.56;;;12.65
67515;BMP280;60646;55.802;37.032;2023-05-07T09:12:32;100986.75;;;12.71
67515;BMP280;60646;55.802;37.032;2023-05-07T09:14:59;100968.00;;;12.71
67515;BMP280;60646;55.802;37.032;2023-05-07T09:17:25;100975.22;;;12.80
67515;BMP280;60646;55.802;37.032;2023-05-07T09:19:52;100986.31;;;12.87
67515;BMP280;60646;55.802;37.032;2023-05-07T09:22:19;100964.88;;;12.87
67515;BMP280;60646;55.802;37.032;2023-05-07T09:24:56;100990.34;;;12.98
67515;BMP280;60646;55.802;37.032;2023-05-07T09:27:25;100981.19;;;12.89
67515;BMP280;60646;55.802;37.032;2023-05-07T09:29:52;100991.84;;;12.99
67515;BMP280;60646;55.802;37.032;2023-05-07T09:32:19;100978.16;;;12.97
67515;BMP280;60646;55.802;37.032;2023-05-07T09:34:45;100987.97;;;13.00
67515;BMP280;60646;55.802;37.032;2023-05-07T09:37:15;100981.63;;;13.03
67515;BMP280;60646;55.802;37.032;2023-05-07T09:39:42;100995.50;;;13.16
67515;BMP280;60646;55.802;37.032;2023-05-07T09:42:10;100969.06;;;13.09
67515;BMP280;60646;55.802;37.032;2023-05-07T09:44:56;100962.38;;;13.19
67515;BMP280;60646;55.802;37.032;2023-05-07T09:47:29;100979.03;;;13.43
67515;BMP280;60646;55.802;37.032;2023-05-07T09:49:59;100984.56;;;13.54
67515;BMP280;60646;55.802;37.032;2023-05-07T09:52:30;100976.31;;;13.58
67515;BMP280;60646;55.802;37.032;2023-05-07T09:55:02;100979.88;;;13.69
67515;BMP280;60646;55.802;37.032;2023-05-07T09:57:31;100970.59;;;13.70
67515;BMP280;60646;55.802;37.032;2023-05-07T10:00:03;100990.06;;;13.85
67515;BMP280;60646;55.802;37.032;2023-05-07T10:02:48;100969.94;;;13.75
67515;BMP280;60646;55.802;37.032;2023-05-07T10:05:19;100986.97;;;13.92
67515;BMP280;60646;55.802;37.032;2023-05-07T10:07:50;100980.53;;;13.84
67515;BMP280;60646;55.802;37.032;2023-05-07T10:10:20;100962.09;;;13.72
67515;BMP280;60646;55.802;37.032;2023-05-07T10:12:47;100970.41;;;13.74
67515;BMP280;60646;55.802;37.032;2023-05-07T10:15:24;100984.97;;;13.87
67515;BMP280;60646;55.802;37.032;2023-05-07T10:17:54;100969.19;;;13.75
67515;BMP280;60646;55.802;37.032;2023-05-07T10:20:22;100964.03;;;13.71
67515;BMP280;60646;55.802;37.032;2023-05-07T10:22:50;100981.56;;;13.87
67515;BMP280;60646;55.802;37.032;2023-05-07T10:25:30;100982.81;;;13.91
67515;BMP280;60646;55.802;37.032;2023-05-07T10:28:06;100976.94;;;13.87
67515;BMP280;60646;55.802;37.032;2023-05-07T10:33:24;100943.34;;;13.77
67515;BMP280;60646;55.802;37.032;2023-05-07T10:35:57;100958.16;;;13.93
67515;BMP280;60646;55.802;37.032;2023-05-07T10:38:26;100968.56;;;14.05
67515;BMP280;60646;55.802;37.032;2023-05-07T10:41:00;100940.22;;;14.04
67515;BMP280;60646;55.802;37.032;2023-05-07T10:43:41;100979.38;;;14.37
67515;BMP280;60646;55.802;37.032;2023-05-07T10:46:13;100965.75;;;14.46
67515;BMP280;60646;55.802;37.032;2023-05-07T10:51:37;100974.50;;;14.66
67515;BMP280;60646;55.802;37.032;2023-05-07T10:54:19;100957.56;;;14.60
67515;BMP280;60646;55.802;37.032;2023-05-07T10:56:54;100973.56;;;14.75
67515;BMP280;60646;55.802;37.032;2023-05-07T10:59:33;100943.91;;;14.64
67515;BMP280;60646;55.802;37.032;2023-05-07T11:02:13;100974.84;;;14.80
67515;BMP280;60646;55.802;37.032;2023-05-07T11:05:22;100972.44;;;14.87
67515;BMP280;60646;55.802;37.032;2023-05-07T11:08:23;100953.25;;;14.74
67515;BMP280;60646;55.802;37.032;2023-05-07T11:10:57;100974.91;;;14.91
67515;BMP280;60646;55.802;37.032;2023-05-07T11:13:45;100988.13;;;14.94
67515;BMP280;60646;55.802;37.032;2023-05-07T11:16:47;100983.41;;;14.84
67515;BMP280;60646;55.802;37.032;2023-05-07T11:19:54;100969.50;;;14.85
67515;BMP280;60646;55.802;37.032;2023-05-07T11:22:47;100980.47;;;14.82
67515;BMP280;60646;55.802;37.032;2023-05-07T11:25:37;100944.31;;;14.57
67515;BMP280;60646;55.802;37.032;2023-05-07T11:28:12;100984.31;;;14.75
67515;BMP280;60646;55.802;37.032;2023-05-07T11:30:44;100984.59;;;14.77
67515;BMP280;60646;55.802;37.032;2023-05-07T11:33:17;100996.22;;;14.63
67515;BMP280;60646;55.802;37.032;2023-05-07T11:35:43;100970.63;;;14.42
67515;BMP280;60646;55.802;37.032;2023-05-07T11:38:12;100993.59;;;14.43
67515;BMP280;60646;55.802;37.032;2023-05-07T11:40:54;100989.16;;;14.40
67515;BMP280;60646;55.802;37.032;2023-05-07T11:43:20;100974.31;;;14.19
67515;BMP280;60646;55.802;37.032;2023-05-07T11:45:46;100976.31;;;14.24
67515;BMP280;60646;55.802;37.032;2023-05-07T11:48:13;100952.44;;;14.05
67515;BMP280;60646;55.802;37.032;2023-05-07T11:50:50;100959.41;;;14.18
67515;BMP280;60646;55.802;37.032;2023-05-07T11:53:17;100958.97;;;14.25
67515;BMP280;60646;55.802;37.032;2023-05-07T11:55:44;100974.53;;;14.41
67515;BMP280;60646;55.802;37.032;2023-05-07T11:58:12;100962.03;;;14.38
67515;BMP280;60646;55.802;37.032;2023-05-07T12:00:51;100959.59;;;14.40
67515;BMP280;60646;55.802;37.032;2023-05-07T12:03:17;100993.25;;;14.61
67515;BMP280;60646;55.802;37.032;2023-05-07T12:05:47;100967.75;;;14.51
67515;BMP280;60646;55.802;37.032;2023-05-07T12:08:20;100981.34;;;14.67
67515;BMP280;60646;55.802;37.032;2023-05-07T12:10:48;100961.44;;;14.54
67515;BMP280;60646;55.802;37.032;2023-05-07T12:13:19;100979.41;;;14.68
67515;BMP280;60646;55.802;37.032;2023-05-07T12:15:45;100959.94;;;14.53
67515;BMP280;60646;55.802;37.032;2023-05-07T12:18:12;100951.63;;;14.51
67515;BMP280;60646;55.802;37.032;2023-05-07T12:20:39;100943.75;;;14.42
67515;BMP280;60646;55.802;37.032;2023-05-07T12:23:05;100972.25;;;14.59
67515;BMP280;60646;55.802;37.032;2023-05-07T12:25:34;100964.63;;;14.58
67515;BMP280;60646;55.802;37.032;2023-05-07T12:28:00;100967.38;;;14.63
67515;BMP280;60646;55.802;37.032;2023-05-07T12:30:27;100952.16;;;14.55
67515;BMP280;60646;55.802;37.032;2023-05-07T12:32:54;100940.44;;;14.58
67515;BMP280;60646;55.802;37.032;2023-05-07T12:35:37;100960.88;;;14.81
67515;BMP280;60646;55.802;37.032;2023-05-07T12:38:10;100940.50;;;14.69
67515;BMP280;60646;55.802;37.032;2023-05-07T12:43:05;100958.25;;;14.87
67515;BMP280;60646;55.802;37.032;2023-05-07T12:45:31;100956.72;;;14.80
67515;BMP280;60646;55.802;37.032;2023-05-07T12:48:01;100960.72;;;14.90
67515;BMP280;60646;55.802;37.032;2023-05-07T12:50:31;100951.88;;;14.84
67515;BMP280;60646;55.802;37.032;2023-05-07T12:52:57;100963.13;;;14.88
67515;BMP280;60646;55.802;37.032;2023-05-07T12:55:23;100943.75;;;14.73
67515;BMP280;60646;55.802;37.032;2023-05-07T12:57:49;100933.41;;;14.66
67515;BMP280;60646;55.802;37.032;2023-05-07T13:00:36;100947.44;;;14.81
67515;BMP280;60646;55.802;37.032;2023-05-07T13:03:02;100941.97;;;14.70
67515;BMP280;60646;55.802;37.032;2023-05-07T13:05:28;100949.13;;;14.73
67515;BMP280;60646;55.802;37.032;2023-05-07T13:07:57;100933.88;;;14.64
67515;BMP280;60646;55.802;37.032;2023-05-07T13:10:23;100944.09;;;14.60
67515;BMP280;60646;55.802;37.032;2023-05-07T13:12:49;100952.22;;;14.66
67515;BMP280;60646;55.802;37.032;2023-05-07T13:15:16;100961.59;;;14.76
67515;BMP280;60646;55.802;37.032;2023-05-07T13:17:42;100956.66;;;14.69
67515;BMP280;60646;55.802;37.032;2023-05-07T13:20:11;100942.94;;;14.67
67515;BMP280;60646;55.802;37.032;2023-05-07T13:22:39;100947.69;;;14.77
67515;BMP280;60646;55.802;37.032;2023-05-07T13:25:05;100948.91;;;14.82
67515;BMP280;60646;55.802;37.032;2023-05-07T13:27:32;100949.97;;;14.90
67515;BMP280;60646;55.802;37.032;2023-05-07T13:30:01;100959.81;;;15.04
67515;BMP280;60646;55.802;37.032;2023-05-07T13:32:29;100939.47;;;14.98
67515;BMP280;60646;55.802;37.032;2023-05-07T13:34:59;100950.81;;;15.13
67515;BMP280;60646;55.802;37.032;2023-05-07T13:37:26;100954.47;;;15.15
67515;BMP280;60646;55.802;37.032;2023-05-07T13:39:54;100948.59;;;15.11
67515;BMP280;60646;55.802;37.032;2023-05-07T13:42:20;100947.63;;;15.14
67515;BMP280;60646;55.802;37.032;2023-05-07T13:44:46;100941.72;;;15.10
67515;BMP280;60646;55.802;37.032;2023-05-07T13:47:13;100955.72;;;15.14
67515;BMP280;60646;55.802;37.032;2023-05-07T13:49:42;100945.63;;;15.04
67515;BMP280;60646;55.802;37.032;2023-05-07T13:52:08;100956.63;;;15.06
67515;BMP280;60646;55.802;37.032;2023-05-07T13:54:34;100965.72;;;15.08
67515;BMP280;60646;55.802;37.032;2023-05-07T13:57:00;100979.66;;;15.07
67515;BMP280;60646;55.802;37.032;2023-05-07T13:59:27;100978.16;;;15.06
67515;BMP280;60646;55.802;37.032;2023-05-07T14:02:11;100959.97;;;14.90
67515;BMP280;60646;55.802;37.032;2023-05-07T14:04:37;100964.63;;;14.89
67515;BMP280;60646;55.802;37.032;2023-05-07T14:07:03;100960.63;;;14.79